Latest Weather Observations for Sellicks Hill

IDS60801

Issued at 10:01 am CST Sunday 26 June 2016 (issued every 30 minutes, with the page automatically refreshed every 10 minutes)

About weather observations | Map of weather stations | Latest weather observations for SA | Other Formats
Station Details ID: 023886 Name: MOUNT TERRIBLE RADAR Lat: -35.33 Lon: 138.50 Height: 385.7 m
Data from the previous 72 hours. | See also: Recent months for locations in South Australia
Date/Time
CST
Temp
°C
App
Temp
°C
Dew
Point
°C
Rel
Hum
%
Delta-T
°C
Wind Press
QNH
hPa
Press
MSL
hPa
Rain since
9am
mm
Dir  Spd
km/h
Gust
km/h
Spd
kts
Gust
kts
26/10:00am - - - - - N 9 13 5 7 - - -
26/09:30am - - - - - NNW 7 17 4 9 - - -
26/09:00am - - - - - NNW 15 26 8 14 - - -
26/08:30am - - - - - N 9 20 5 11 - - -
26/08:00am - - - - - NNW 9 17 5 9 - - -
26/07:30am - - - - - N 6 11 3 6 - - -
26/07:00am - - - - - NNW 7 15 4 8 - - -
26/06:30am - - - - - N 6 13 3 7 - - -
26/06:00am - - - - - NNW 9 17 5 9 - - -
26/05:30am - - - - - NNW 9 17 5 9 - - -
26/05:00am - - - - - N 9 19 5 10 - - -
26/04:30am - - - - - NNW 11 20 6 11 - - -
26/04:00am - - - - - N 9 17 5 9 - - -
26/03:30am - - - - - N 9 19 5 10 - - -
26/03:00am - - - - - N 9 15 5 8 - - -
26/02:30am - - - - - NNW 11 20 6 11 - - -
26/02:00am - - - - - NNW 9 15 5 8 - - -
26/01:30am - - - - - N 11 22 6 12 - - -
26/01:00am - - - - - NNW 11 20 6 11 - - -
26/12:30am - - - - - N 7 20 4 11 - - -
26/12:00am - - - - - N 7 15 4 8 - - -
 
Date/Time
CST
Temp
°C
App
Temp
°C
Dew
Point
°C
Rel
Hum
%
Delta-T
°C
Wind Press
QNH
hPa
Press
MSL
hPa
Rain since
9am
mm
Dir  Spd
km/h
Gust
km/h
Spd
kts
Gust
kts
25/11:30pm - - - - - N 7 17 4 9 - - -
25/11:00pm - - - - - N 7 17 4 9 - - -
25/10:30pm - - - - - N 6 9 3 5 - - -
25/10:00pm - - - - - NNW 7 13 4 7 - - -
25/09:30pm - - - - - N 4 6 2 3 - - -
25/09:00pm - - - - - N 4 6 2 3 - - -
25/08:30pm - - - - - N 4 7 2 4 - - -
25/08:00pm - - - - - N 7 17 4 9 - - -
25/07:30pm - - - - - N 7 13 4 7 - - -
25/07:00pm - - - - - N 4 13 2 7 - - -
25/06:30pm - - - - - N 2 6 1 3 - - -
25/06:00pm - - - - - N 4 6 2 3 - - -
25/05:30pm - - - - - NNW 7 11 4 6 - - -
25/05:00pm - - - - - NNW 7 9 4 5 - - -
25/04:30pm - - - - - NNW 6 13 3 7 - - -
25/04:00pm - - - - - NNW 6 13 3 7 - - -
25/03:30pm - - - - - NNW 9 15 5 8 - - -
25/03:00pm - - - - - NNW 9 13 5 7 - - -
25/02:30pm - - - - - NNW 7 15 4 8 - - -
25/02:00pm - - - - - NNW 11 19 6 10 - - -
25/01:30pm - - - - - NNW 9 17 5 9 - - -
25/01:00pm - - - - - NNW 11 19 6 10 - - -
25/12:30pm - - - - - NNW 9 17 5 9 - - -
25/12:00pm - - - - - NNW 9 17 5 9 - - -
25/11:30am - - - - - NNW 9 15 5 8 - - -
25/11:00am - - - - - NNW 9 13 5 7 - - -
25/10:30am - - - - - NNW 7 13 4 7 - - -
25/10:00am - - - - - N 7 13 4 7 - - -
25/09:30am - - - - - N 4 9 2 5 - - -
25/09:00am - - - - - N 6 13 3 7 - - -
25/08:30am - - - - - N 6 11 3 6 - - -
25/08:00am - - - - - N 4 9 2 5 - - -
25/07:30am - - - - - N 4 7 2 4 - - -
25/07:00am - - - - - N 2 6 1 3 - - -
25/06:30am - - - - - N 2 6 1 3 - - -
25/06:00am - - - - - N 4 6 2 3 - - -
25/05:30am - - - - - N 2 4 1 2 - - -
25/05:00am - - - - - N 4 6 2 3 - - -
25/04:30am - - - - - N 2 4 1 2 - - -
25/04:00am - - - - - N 4 6 2 3 - - -
25/03:30am - - - - - W 2 6 1 3 - - -
25/03:00am - - - - - WSW 4 9 2 5 - - -
25/02:30am - - - - - WSW 4 7 2 4 - - -
25/02:00am - - - - - WSW 4 7 2 4 - - -
25/01:30am - - - - - SW 9 13 5 7 - - -
25/01:00am - - - - - SW 11 17 6 9 - - -
25/12:30am - - - - - SSW 9 13 5 7 - - -
25/12:00am - - - - - SW 9 15 5 8 - - -
 
Date/Time
CST
Temp
°C
App
Temp
°C
Dew
Point
°C
Rel
Hum
%
Delta-T
°C
Wind Press
QNH
hPa
Press
MSL
hPa
Rain since
9am
mm
Dir  Spd
km/h
Gust
km/h
Spd
kts
Gust
kts
24/11:30pm - - - - - SW 9 19 5 10 - - -
24/11:00pm - - - - - SW 7 11 4 6 - - -
24/10:30pm - - - - - WSW 6 11 3 6 - - -
24/10:00pm - - - - - WSW 6 9 3 5 - - -
24/09:30pm - - - - - SW 9 17 5 9 - - -
24/09:00pm - - - - - SW 11 19 6 10 - - -
24/08:30pm - - - - - SW 11 15 6 8 - - -
24/08:00pm - - - - - SSW 9 15 5 8 - - -
24/07:30pm - - - - - SW 9 15 5 8 - - -
24/07:00pm - - - - - SSW 11 19 6 10 - - -
24/06:30pm - - - - - SW 9 15 5 8 - - -
24/06:00pm - - - - - SW 11 17 6 9 - - -
24/05:30pm - - - - - SW 9 17 5 9 - - -
24/05:00pm - - - - - SW 7 17 4 9 - - -
24/04:30pm - - - - - SW 11 20 6 11 - - -
24/04:00pm - - - - - WSW 9 20 5 11 - - -
24/03:30pm - - - - - SW 11 20 6 11 - - -
24/03:00pm - - - - - SW 13 22 7 12 - - -
24/02:30pm - - - - - W 13 28 7 15 - - -
24/02:00pm - - - - - WSW 9 20 5 11 - - -
24/01:30pm - - - - - SW 13 22 7 12 - - -
24/01:00pm - - - - - SW 17 30 9 16 - - -
24/12:30pm - - - - - WSW 11 20 6 11 - - -
24/12:00pm - - - - - WSW 9 24 5 13 - - -
24/11:30am - - - - - WSW 13 26 7 14 - - -
24/11:00am - - - - - W 7 19 4 10 - - -
24/10:30am - - - - - WSW 11 22 6 12 - - -
24/10:00am - - - - - SW 11 30 6 16 - - -
24/09:30am - - - - - WSW 9 26 5 14 - - -
24/09:00am - - - - - WSW 15 32 8 17 - - -
24/08:30am - - - - - WSW 13 32 7 17 - - -
24/08:00am - - - - - W 15 30 8 16 - - -
24/07:30am - - - - - W 13 32 7 17 - - -
24/07:00am - - - - - WSW 15 30 8 16 - - -
24/06:30am - - - - - WSW 19 39 10 21 - - -
24/06:02am - - - - - WSW 22 54 12 29 - - -
24/06:00am - - - - - W 20 50 11 27 - - -
24/05:30am - - - - - W 19 39 10 21 - - -
24/05:00am - - - - - W 17 37 9 20 - - -
24/04:30am - - - - - WSW 17 39 9 21 - - -
24/04:00am - - - - - W 17 37 9 20 - - -
24/03:30am - - - - - WSW 17 32 9 17 - - -
24/03:00am - - - - - WSW 17 37 9 20 - - -
24/02:30am - - - - - WSW 19 44 10 24 - - -
24/02:00am - - - - - WSW 19 41 10 22 - - -
24/01:30am - - - - - W 20 57 11 31 - - -
24/01:00am - - - - - WNW 15 28 8 15 - - -
24/12:30am - - - - - W 22 41 12 22 - - -
24/12:00am - - - - - WNW 19 44 10 24 - - -
 
Date/Time
CST
Temp
°C
App
Temp
°C
Dew
Point
°C
Rel
Hum
%
Delta-T
°C
Wind Press
QNH
hPa
Press
MSL
hPa
Rain since
9am
mm
Dir  Spd
km/h
Gust
km/h
Spd
kts
Gust
kts
23/11:30pm - - - - - W 15 35 8 19 - - -
23/11:00pm - - - - - W 15 28 8 15 - - -
23/10:30pm - - - - - W 15 32 8 17 - - -
23/10:00pm - - - - - W 13 33 7 18 - - -
23/09:30pm - - - - - W 11 22 6 12 - - -
23/09:00pm - - - - - W 17 44 9 24 - - -
23/08:30pm - - - - - WNW 15 26 8 14 - - -
23/08:00pm - - - - - WNW 15 30 8 16 - - -
23/07:30pm - - - - - W 11 20 6 11 - - -
23/07:00pm - - - - - WSW 19 43 10 23 - - -
23/06:30pm - - - - - WNW 11 24 6 13 - - -
23/06:00pm - - - - - W 13 26 7 14 - - -
23/05:30pm - - - - - W 11 28 6 15 - - -
23/05:00pm - - - - - WNW 9 19 5 10 - - -
23/04:30pm - - - - - W 7 15 4 8 - - -
23/04:00pm - - - - - W 9 19 5 10 - - -
23/03:30pm - - - - - WNW 11 26 6 14 - - -
23/03:00pm - - - - - WNW 9 22 5 12 - - -
23/02:30pm - - - - - WNW 13 30 7 16 - - -
23/02:00pm - - - - - W 11 28 6 15 - - -
23/01:30pm - - - - - NW 11 20 6 11 - - -
23/01:00pm - - - - - WNW 13 24 7 13 - - -
23/12:30pm - - - - - NW 15 32 8 17 - - -
23/12:00pm - - - - - NW 13 30 7 16 - - -
23/11:30am - - - - - NW 15 28 8 15 - - -
23/11:00am - - - - - NNW 32 56 17 30 - - -
23/10:30am - - - - - NNW 33 54 18 29 - - -

Other Formats:

Comma delimited format used in spreadsheet applications
http://www.bom.gov.au/fwo/IDS60801/IDS60801.95679.axf

JavaScript Object Notation format (JSON) in row-major order
http://www.bom.gov.au/fwo/IDS60801/IDS60801.95679.json